createdAt,value
2023-01-26T00:02:04.162Z,101094.85
2023-01-26T00:04:32.114Z,101095.33
2023-01-26T00:07:00.107Z,101097.84
2023-01-26T00:09:28.023Z,101096.86
2023-01-26T00:11:56.428Z,101095.30
2023-01-26T00:14:24.363Z,101091.58
2023-01-26T00:16:58.031Z,101090.52
2023-01-26T00:19:26.203Z,101087.98
2023-01-26T00:21:54.099Z,101083.39
2023-01-26T00:24:25.570Z,101080.04
2023-01-26T00:26:53.933Z,101081.21
2023-01-26T00:29:21.978Z,101071.34
2023-01-26T00:31:50.745Z,101073.63
2023-01-26T00:34:18.756Z,101074.34
2023-01-26T00:36:46.728Z,101070.84
2023-01-26T00:39:14.614Z,101068.39
2023-01-26T00:42:01.330Z,101068.42
2023-01-26T00:44:29.418Z,101067.56
2023-01-26T00:46:57.293Z,101059.09
2023-01-26T00:49:25.835Z,101057.42
2023-01-26T00:51:53.816Z,101056.66
2023-01-26T00:54:21.775Z,101057.89
2023-01-26T00:56:49.785Z,101052.48
2023-01-26T00:59:17.822Z,101055.02
2023-01-26T01:01:47.886Z,101057.58
2023-01-26T01:04:17.444Z,101059.69
2023-01-26T01:06:45.640Z,101052.61
2023-01-26T01:09:13.614Z,101049.96
2023-01-26T01:11:43.125Z,101051.68
2023-01-26T01:14:13.152Z,101046.95
2023-01-26T01:16:41.473Z,101046.55
2023-01-26T01:19:15.602Z,101045.59
2023-01-26T01:21:44.456Z,101043.11
2023-01-26T01:24:12.419Z,101041.54
2023-01-26T01:26:40.487Z,101037.36
2023-01-26T01:29:12.862Z,101029.98
2023-01-26T01:31:41.677Z,101022.69
2023-01-26T01:34:10.691Z,101023.06
2023-01-26T01:36:41.365Z,101016.98
2023-01-26T01:39:09.439Z,101014.13
2023-01-26T01:41:37.410Z,101011.59
2023-01-26T01:44:31.808Z,101006.48
2023-01-26T01:47:03.376Z,101007.95
2023-01-26T01:49:34.742Z,101002.00
2023-01-26T01:52:11.062Z,101001.35
2023-01-26T01:54:48.908Z,100999.96
2023-01-26T01:57:27.854Z,100994.09
2023-01-26T02:00:09.386Z,100988.94
2023-01-26T02:02:44.997Z,100987.50
2023-01-26T02:05:34.071Z,100986.33
2023-01-26T02:08:03.049Z,100985.68
2023-01-26T02:10:31.307Z,100983.76
2023-01-26T02:13:00.936Z,100981.66
2023-01-26T02:15:29.621Z,100977.33
2023-01-26T02:17:57.998Z,100971.84
2023-01-26T02:20:30.593Z,100971.20
2023-01-26T02:23:23.379Z,100968.13
2023-01-26T02:25:56.155Z,100959.83
2023-01-26T02:28:26.197Z,100958.48
2023-01-26T02:30:54.572Z,100957.27
2023-01-26T02:33:27.771Z,100952.33
2023-01-26T02:36:00.583Z,100952.83
2023-01-26T02:38:33.998Z,100951.63
2023-01-26T02:41:07.310Z,100950.32
2023-01-26T02:43:38.810Z,100946.20
2023-01-26T02:46:07.146Z,100941.39
2023-01-26T02:48:59.432Z,100941.80
2023-01-26T02:51:30.855Z,100938.23
2023-01-26T02:54:02.502Z,100934.32
2023-01-26T02:56:40.140Z,100929.87
2023-01-26T02:59:08.263Z,100930.85
2023-01-26T03:01:36.284Z,100933.66
2023-01-26T03:04:06.871Z,100925.95
2023-01-26T03:06:35.101Z,100925.91
2023-01-26T03:09:03.029Z,100925.74
2023-01-26T03:11:42.122Z,100924.61
2023-01-26T03:14:15.359Z,100922.26
2023-01-26T03:16:43.634Z,100923.23
2023-01-26T03:19:32.291Z,100919.61
2023-01-26T03:22:19.625Z,100915.75
2023-01-26T03:25:06.594Z,100915.89
2023-01-26T03:27:40.733Z,100913.70
2023-01-26T03:30:11.626Z,100918.73
2023-01-26T03:32:40.876Z,100917.13
2023-01-26T03:35:22.644Z,100912.23
2023-01-26T03:37:54.764Z,100913.39
2023-01-26T03:41:08.008Z,100906.08
2023-01-26T03:43:55.972Z,100901.71
2023-01-26T03:46:42.964Z,100897.98
2023-01-26T03:49:30.243Z,100897.40
2023-01-26T03:52:17.649Z,100895.27
2023-01-26T03:55:08.575Z,100902.92
2023-01-26T03:57:37.092Z,100904.24
2023-01-26T04:00:06.319Z,100905.14
2023-01-26T04:03:01.639Z,100912.42
2023-01-26T04:05:49.659Z,100911.39
2023-01-26T04:08:21.828Z,100913.28
2023-01-26T04:10:53.991Z,100913.11
2023-01-26T04:13:41.854Z,100917.98
2023-01-26T04:16:31.504Z,100921.34
2023-01-26T04:19:18.335Z,100922.09
2023-01-26T04:21:47.564Z,100924.14
2023-01-26T04:24:22.480Z,100930.59
2023-01-26T04:26:54.968Z,100930.66
2023-01-26T04:29:36.324Z,100929.63
2023-01-26T04:32:04.948Z,100922.13
2023-01-26T04:34:34.774Z,100917.74
2023-01-26T04:37:06.001Z,100917.06
2023-01-26T04:39:44.929Z,100918.80
2023-01-26T04:42:13.104Z,100917.09
2023-01-26T04:44:41.716Z,100916.45
2023-01-26T04:47:10.655Z,100917.04
2023-01-26T04:49:39.960Z,100916.98
2023-01-26T04:52:08.440Z,100915.21
2023-01-26T04:54:36.766Z,100910.88
2023-01-26T04:57:04.812Z,100912.46
2023-01-26T04:59:32.944Z,100911.42
2023-01-26T05:02:02.290Z,100904.31
2023-01-26T05:04:30.439Z,100903.84
2023-01-26T05:06:58.565Z,100898.94
2023-01-26T05:09:27.532Z,100903.36
2023-01-26T05:12:33.173Z,100905.36
2023-01-26T05:15:20.024Z,100905.81
2023-01-26T05:18:18.202Z,100900.46
2023-01-26T05:20:55.052Z,100899.46
2023-01-26T05:23:27.620Z,100892.48
2023-01-26T05:26:05.092Z,100893.98
2023-01-26T05:28:41.437Z,100895.55
2023-01-26T05:31:09.488Z,100894.44
2023-01-26T05:33:39.785Z,100892.95
2023-01-26T05:36:09.479Z,100891.54
2023-01-26T05:38:37.941Z,100887.91
2023-01-26T05:41:07.512Z,100893.66
2023-01-26T05:43:46.827Z,100894.13
2023-01-26T05:46:33.628Z,100891.80
2023-01-26T05:49:01.667Z,100892.59
2023-01-26T05:51:30.381Z,100890.95
2023-01-26T05:53:58.619Z,100891.89
2023-01-26T05:56:27.163Z,100892.14
2023-01-26T05:59:00.266Z,100892.51
2023-01-26T06:01:28.391Z,100897.59
2023-01-26T06:03:59.217Z,100897.95
2023-01-26T06:06:32.116Z,100897.80
2023-01-26T06:09:11.072Z,100899.47
2023-01-26T06:11:56.896Z,100902.45
2023-01-26T06:14:47.658Z,100897.90
2023-01-26T06:17:17.621Z,100898.73
2023-01-26T06:19:49.144Z,100902.98
2023-01-26T06:22:17.891Z,100903.29
2023-01-26T06:24:49.622Z,100901.55
2023-01-26T06:27:18.691Z,100898.87
2023-01-26T06:29:48.572Z,100900.58
2023-01-26T06:32:16.967Z,100901.34
2023-01-26T06:34:46.680Z,100899.41
2023-01-26T06:37:15.544Z,100902.69
2023-01-26T06:39:44.951Z,100900.83
2023-01-26T06:42:13.158Z,100899.21
2023-01-26T06:44:41.545Z,100904.77
2023-01-26T06:47:09.945Z,100905.17
2023-01-26T06:49:38.047Z,100905.98
2023-01-26T06:52:35.867Z,100902.63
2023-01-26T06:55:37.876Z,100902.01
2023-01-26T06:58:24.761Z,100898.55
2023-01-26T07:01:34.756Z,100899.15
2023-01-26T07:04:03.025Z,100901.42
2023-01-26T07:06:31.002Z,100899.56
2023-01-26T07:08:58.888Z,100899.67
2023-01-26T07:11:30.138Z,100904.98
2023-01-26T07:13:58.951Z,100904.08
2023-01-26T07:16:27.108Z,100904.27
2023-01-26T07:18:55.867Z,100900.77
2023-01-26T07:21:23.957Z,100898.99
2023-01-26T07:23:53.354Z,100895.13
2023-01-26T07:26:21.477Z,100891.98
2023-01-26T07:28:49.691Z,100893.52
2023-01-26T07:31:18.048Z,100895.17
2023-01-26T07:33:46.868Z,100893.45
2023-01-26T07:36:15.057Z,100897.94
2023-01-26T07:38:43.052Z,100893.20
2023-01-26T07:41:11.925Z,100889.73
2023-01-26T07:43:41.275Z,100888.17
2023-01-26T07:46:12.555Z,100887.54
2023-01-26T07:48:41.755Z,100885.27
2023-01-26T07:51:11.177Z,100886.35
2023-01-26T07:53:39.922Z,100883.16
2023-01-26T07:56:13.070Z,100884.02
2023-01-26T07:58:41.475Z,100890.02
2023-01-26T08:01:13.696Z,100889.34
2023-01-26T08:03:42.610Z,100890.42
2023-01-26T08:06:12.628Z,100887.68
2023-01-26T08:08:43.263Z,100889.20
2023-01-26T08:11:11.860Z,100888.10
2023-01-26T08:13:39.802Z,100890.30
2023-01-26T08:16:12.847Z,100891.27
2023-01-26T08:18:42.036Z,100892.73
2023-01-26T08:21:11.592Z,100891.64
2023-01-26T08:23:39.609Z,100890.05
2023-01-26T08:26:10.225Z,100894.95
2023-01-26T08:28:38.307Z,100895.29
2023-01-26T08:31:13.478Z,100892.23
2023-01-26T08:33:43.676Z,100889.23
2023-01-26T08:36:12.843Z,100886.83
2023-01-26T08:38:41.239Z,100885.38
2023-01-26T08:41:09.513Z,100879.83
2023-01-26T08:43:37.800Z,100876.64
2023-01-26T08:46:06.283Z,100875.45
2023-01-26T08:48:34.328Z,100872.94
2023-01-26T08:51:03.072Z,100877.48
2023-01-26T08:53:32.488Z,100873.52
2023-01-26T08:56:06.194Z,100866.55
2023-01-26T08:58:35.714Z,100863.70
2023-01-26T09:01:08.369Z,100862.14
2023-01-26T09:03:36.487Z,100859.71
2023-01-26T09:06:05.254Z,100861.07
2023-01-26T09:08:33.242Z,100854.60
2023-01-26T09:11:01.443Z,100853.91
2023-01-26T09:13:30.332Z,100850.45
2023-01-26T09:16:20.053Z,100851.67
2023-01-26T09:18:52.713Z,100852.73
2023-01-26T09:21:21.206Z,100850.74
2023-01-26T09:23:49.087Z,100854.60
2023-01-26T09:26:17.257Z,100855.41
2023-01-26T09:28:45.268Z,100854.52
2023-01-26T09:31:13.514Z,100850.09
2023-01-26T09:33:44.680Z,100847.01
2023-01-26T09:36:13.028Z,100844.17
2023-01-26T09:38:41.050Z,100841.13
2023-01-26T09:41:33.863Z,100834.83
2023-01-26T09:44:05.428Z,100834.43
2023-01-26T09:46:44.548Z,100838.82
2023-01-26T09:49:15.583Z,100833.89
2023-01-26T09:51:48.087Z,100831.27
2023-01-26T09:54:33.507Z,100828.17
2023-01-26T09:57:02.465Z,100827.77
2023-01-26T09:59:35.162Z,100828.70
2023-01-26T10:02:16.738Z,100829.20
2023-01-26T10:04:47.020Z,100823.59
2023-01-26T10:07:15.630Z,100822.23
2023-01-26T10:09:47.639Z,100822.02
2023-01-26T10:12:36.372Z,100818.91
2023-01-26T10:15:28.829Z,100818.54
2023-01-26T10:17:56.848Z,100815.00
2023-01-26T10:20:35.429Z,100813.56
2023-01-26T10:23:03.524Z,100809.29
2023-01-26T10:25:36.788Z,100807.13
2023-01-26T10:28:15.585Z,100799.08
2023-01-26T10:30:45.647Z,100795.20
2023-01-26T10:33:40.633Z,100788.38
2023-01-26T10:36:09.306Z,100779.14
2023-01-26T10:38:37.923Z,100775.88
2023-01-26T10:41:16.983Z,100773.96
2023-01-26T10:43:59.181Z,100775.15
2023-01-26T10:46:45.528Z,100767.73
2023-01-26T10:49:16.292Z,100770.38
2023-01-26T10:52:06.412Z,100768.89
2023-01-26T10:54:36.988Z,100770.31
2023-01-26T10:57:11.950Z,100767.10
2023-01-26T10:59:50.382Z,100758.03
2023-01-26T11:02:29.227Z,100760.14
2023-01-26T11:05:09.607Z,100758.89
2023-01-26T11:07:42.572Z,100753.23
2023-01-26T11:10:19.676Z,100745.85
2023-01-26T11:12:48.827Z,100741.63
2023-01-26T11:15:24.837Z,100738.69
2023-01-26T11:17:58.757Z,100742.44
2023-01-26T11:21:11.704Z,100738.45
2023-01-26T11:24:13.198Z,100743.96
2023-01-26T11:26:53.302Z,100736.21
2023-01-26T11:29:49.220Z,100732.48
2023-01-26T11:32:39.718Z,100729.77
2023-01-26T11:35:27.751Z,100728.63
2023-01-26T11:38:33.829Z,100726.52
2023-01-26T11:41:54.341Z,100727.34
2023-01-26T11:44:36.139Z,100725.59
2023-01-26T14:16:37.300Z,100661.45
2023-01-26T14:19:18.574Z,100658.58
2023-01-26T14:21:47.680Z,100657.55
2023-01-26T14:24:17.019Z,100650.30
2023-01-26T14:26:45.299Z,100645.90
2023-01-26T14:29:19.636Z,100642.93
2023-01-26T14:31:48.710Z,100642.19
2023-01-26T14:34:20.532Z,100644.66
2023-01-26T14:36:48.682Z,100637.46
2023-01-26T14:39:18.334Z,100641.64
2023-01-26T14:41:46.649Z,100641.19
2023-01-26T14:44:14.724Z,100643.51
2023-01-26T14:46:57.285Z,100644.93
2023-01-26T14:49:50.854Z,100638.96
2023-01-26T14:52:33.990Z,100644.48
2023-01-26T14:55:06.585Z,100639.67
2023-01-26T14:57:34.732Z,100634.40
2023-01-26T15:00:08.782Z,100630.28
2023-01-26T15:02:38.186Z,100632.87
2023-01-26T15:05:13.045Z,100629.95
2023-01-26T15:07:52.041Z,100631.30
2023-01-26T15:10:39.062Z,100628.89
2023-01-26T15:13:21.854Z,100633.55
2023-01-26T15:16:05.123Z,100630.35
2023-01-26T15:18:34.667Z,100635.86
2023-01-26T15:21:05.655Z,100639.27
2023-01-26T15:23:37.614Z,100638.71
2023-01-26T15:26:10.421Z,100640.05
2023-01-26T15:28:38.823Z,100639.34
2023-01-26T15:31:07.125Z,100641.46
2023-01-26T15:33:54.860Z,100638.08
2023-01-26T15:36:31.038Z,100634.11
2023-01-26T15:39:04.547Z,100632.73
2023-01-26T15:41:32.962Z,100634.08
2023-01-26T15:44:00.994Z,100635.08
2023-01-26T15:46:31.194Z,100637.16
2023-01-26T15:48:59.485Z,100639.06
2023-01-26T15:51:29.720Z,100637.71
2023-01-26T15:53:57.591Z,100635.15
2023-01-26T15:56:25.695Z,100637.77
2023-01-26T15:58:53.833Z,100632.60
2023-01-26T16:01:22.875Z,100635.70
2023-01-26T16:03:51.266Z,100636.32
2023-01-26T16:06:28.342Z,100635.46
2023-01-26T16:08:56.553Z,100632.73
2023-01-26T16:11:35.499Z,100636.03
2023-01-26T16:14:04.498Z,100636.72
2023-01-26T16:16:32.904Z,100637.45
2023-01-26T16:19:02.168Z,100635.77
2023-01-26T16:21:33.735Z,100635.79
2023-01-26T16:24:02.082Z,100638.88
2023-01-26T16:26:30.405Z,100637.13
2023-01-26T16:28:58.604Z,100636.04
2023-01-26T16:31:29.941Z,100633.46
2023-01-26T16:34:05.621Z,100632.60
2023-01-26T16:36:34.912Z,100634.44
2023-01-26T16:39:02.825Z,100634.24
2023-01-26T16:41:34.912Z,100638.69
2023-01-26T16:44:03.521Z,100637.50
2023-01-26T16:46:31.501Z,100636.08
2023-01-26T16:48:59.549Z,100638.30
2023-01-26T16:51:31.292Z,100638.28
2023-01-26T16:53:59.468Z,100638.73
2023-01-26T16:56:28.650Z,100637.88
2023-01-26T16:58:56.642Z,100641.48
2023-01-26T17:01:28.268Z,100642.88
2023-01-26T17:03:56.295Z,100643.54
2023-01-26T17:06:24.935Z,100643.70
2023-01-26T17:08:52.954Z,100642.67
2023-01-26T17:11:23.209Z,100637.54
2023-01-26T17:13:51.435Z,100639.30
2023-01-26T17:16:21.325Z,100636.15
2023-01-26T17:18:49.431Z,100636.29
2023-01-26T17:21:18.714Z,100634.45
2023-01-26T17:23:53.519Z,100634.08
2023-01-26T17:26:21.618Z,100632.30
2023-01-26T17:28:54.001Z,100634.23
2023-01-26T17:31:23.833Z,100634.27
2023-01-26T17:33:51.964Z,100635.66
2023-01-26T17:36:20.018Z,100637.26
2023-01-26T17:38:48.895Z,100636.09
2023-01-26T17:41:17.208Z,100633.34
2023-01-26T17:43:45.485Z,100630.97
2023-01-26T17:46:17.077Z,100630.15
2023-01-26T17:48:45.846Z,100627.54
2023-01-26T17:51:18.029Z,100625.98
2023-01-26T22:12:43.388Z,100554.81
2023-01-26T22:15:11.903Z,100551.02
2023-01-26T22:17:42.683Z,100552.89
2023-01-26T22:20:14.338Z,100551.17
2023-01-26T22:22:42.454Z,100548.48
2023-01-26T22:25:12.944Z,100542.84
2023-01-26T22:27:41.333Z,100542.89
2023-01-26T22:30:10.744Z,100539.16
2023-01-26T22:32:38.963Z,100536.45
2023-01-26T22:35:09.050Z,100535.27
2023-01-26T22:37:37.466Z,100533.75
2023-01-26T22:40:06.280Z,100534.14
2023-01-26T22:42:34.234Z,100525.29
2023-01-26T22:45:02.479Z,100527.02
2023-01-26T22:47:31.041Z,100524.11
2023-01-26T22:49:59.276Z,100520.54
2023-01-26T22:52:27.368Z,100521.94
2023-01-26T22:54:55.420Z,100520.23
2023-01-26T22:57:23.341Z,100518.19
2023-01-26T22:59:51.524Z,100514.80
2023-01-26T23:02:19.624Z,100518.42
2023-01-26T23:04:47.828Z,100513.95
2023-01-26T23:07:15.804Z,100517.41
2023-01-26T23:09:45.402Z,100512.95
2023-01-26T23:12:14.108Z,100514.88
2023-01-26T23:14:42.220Z,100511.10
2023-01-26T23:17:11.313Z,100512.82
2023-01-26T23:19:39.304Z,100509.37
2023-01-26T23:22:07.216Z,100501.98
2023-01-26T23:24:35.257Z,100503.54
2023-01-26T23:27:03.178Z,100501.83
2023-01-26T23:29:31.171Z,100496.17
2023-01-26T23:31:59.385Z,100493.42
2023-01-26T23:34:27.307Z,100499.30
2023-01-26T23:36:56.214Z,100500.52
2023-01-26T23:39:24.126Z,100499.83
2023-01-26T23:41:51.993Z,100499.31
2023-01-26T23:44:20.306Z,100503.95
2023-01-26T23:46:48.381Z,100500.51
2023-01-26T23:49:18.858Z,100497.20
2023-01-26T23:51:46.811Z,100497.23
2023-01-26T23:54:14.817Z,100491.58
2023-01-26T23:56:42.921Z,100491.75
2023-01-26T23:59:10.965Z,100494.67
